sensor_id;sensor_type;location;lat;lon;timestamp;temperature;humidity
59282;DHT22;45054;52.062;10.010;2023-05-16T00:00:55;10.50;99.90
59282;DHT22;45054;52.062;10.010;2023-05-16T00:03:21;10.50;99.90
59282;DHT22;45054;52.062;10.010;2023-05-16T00:05:46;10.40;99.90
59282;DHT22;45054;52.062;10.010;2023-05-16T00:08:12;10.40;99.90
59282;DHT22;45054;52.062;10.010;2023-05-16T00:10:38;10.40;99.90
59282;DHT22;45054;52.062;10.010;2023-05-16T00:13:04;10.40;99.90
59282;DHT22;45054;52.062;10.010;2023-05-16T00:15:29;10.50;99.90
59282;DHT22;45054;52.062;10.010;2023-05-16T00:17:55;10.50;99.90
59282;DHT22;45054;52.062;10.010;2023-05-16T00:20:21;10.40;99.90
59282;DHT22;45054;52.062;10.010;2023-05-16T00:22:46;10.40;99.90
59282;DHT22;45054;52.062;10.010;2023-05-16T00:25:12;10.40;99.90
59282;DHT22;45054;52.062;10.010;2023-05-16T00:27:38;10.40;99.90
59282;DHT22;45054;52.062;10.010;2023-05-16T00:30:04;10.40;99.90
59282;DHT22;45054;52.062;10.010;2023-05-16T00:32:30;10.50;99.90
59282;DHT22;45054;52.062;10.010;2023-05-16T00:34:55;10.40;99.90
59282;DHT22;45054;52.062;10.010;2023-05-16T00:37:21;10.40;99.90
59282;DHT22;45054;52.062;10.010;2023-05-16T00:39:46;10.40;99.90
59282;DHT22;45054;52.062;10.010;2023-05-16T00:42:12;10.40;99.90
59282;DHT22;45054;52.062;10.010;2023-05-16T00:44:38;10.50;99.90
59282;DHT22;45054;52.062;10.010;2023-05-16T00:47:04;10.50;99.90
59282;DHT22;45054;52.062;10.010;2023-05-16T00:49:30;10.50;99.90
59282;DHT22;45054;52.062;10.010;2023-05-16T00:51:55;10.40;99.90
59282;DHT22;45054;52.062;10.010;2023-05-16T00:54:21;10.40;99.90
59282;DHT22;45054;52.062;10.010;2023-05-16T00:56:47;10.40;99.90
59282;DHT22;45054;52.062;10.010;2023-05-16T00:59:12;10.50;99.90
59282;DHT22;45054;52.062;10.010;2023-05-16T01:01:39;10.50;99.90
59282;DHT22;45054;52.062;10.010;2023-05-16T01:04:05;10.60;99.90
59282;DHT22;45054;52.062;10.010;2023-05-16T01:06:31;10.60;99.90
59282;DHT22;45054;52.062;10.010;2023-05-16T01:08:56;10.70;99.90
59282;DHT22;45054;52.062;10.010;2023-05-16T01:11:24;10.70;99.90
59282;DHT22;45054;52.062;10.010;2023-05-16T01:13:54;10.70;99.90
59282;DHT22;45054;52.062;10.010;2023-05-16T01:16:21;10.60;99.90
59282;DHT22;45054;52.062;10.010;2023-05-16T01:18:51;10.60;99.90
59282;DHT22;45054;52.062;10.010;2023-05-16T01:21:23;10.50;99.90
59282;DHT22;45054;52.062;10.010;2023-05-16T01:23:59;10.50;99.90
59282;DHT22;45054;52.062;10.010;2023-05-16T01:26:29;10.50;99.90
59282;DHT22;45054;52.062;10.010;2023-05-16T01:28:55;10.40;99.90
59282;DHT22;45054;52.062;10.010;2023-05-16T01:31:21;10.50;99.90
59282;DHT22;45054;52.062;10.010;2023-05-16T01:33:47;10.50;99.90
59282;DHT22;45054;52.062;10.010;2023-05-16T01:36:14;10.40;99.90
59282;DHT22;45054;52.062;10.010;2023-05-16T01:38:43;10.40;99.90
59282;DHT22;45054;52.062;10.010;2023-05-16T01:41:11;10.30;99.90
59282;DHT22;45054;52.062;10.010;2023-05-16T01:43:41;10.20;99.90
59282;DHT22;45054;52.062;10.010;2023-05-16T01:46:08;10.20;99.90
59282;DHT22;45054;52.062;10.010;2023-05-16T01:48:34;10.10;99.90
59282;DHT22;45054;52.062;10.010;2023-05-16T01:51:02;10.20;99.90
59282;DHT22;45054;52.062;10.010;2023-05-16T01:53:30;10.10;99.90
59282;DHT22;45054;52.062;10.010;2023-05-16T01:55:59;10.20;99.90
59282;DHT22;45054;52.062;10.010;2023-05-16T01:58:25;10.20;99.90
59282;DHT22;45054;52.062;10.010;2023-05-16T02:00:53;10.20;99.90
59282;DHT22;45054;52.062;10.010;2023-05-16T02:03:19;10.20;99.90
59282;DHT22;45054;52.062;10.010;2023-05-16T02:05:44;10.30;99.90
59282;DHT22;45054;52.062;10.010;2023-05-16T02:08:10;10.20;99.90
59282;DHT22;45054;52.062;10.010;2023-05-16T02:10:35;10.10;99.90
59282;DHT22;45054;52.062;10.010;2023-05-16T02:13:01;10.20;99.90
59282;DHT22;45054;52.062;10.010;2023-05-16T02:15:26;10.20;99.90
59282;DHT22;45054;52.062;10.010;2023-05-16T02:17:53;10.30;99.90
59282;DHT22;45054;52.062;10.010;2023-05-16T02:20:19;10.30;99.90
59282;DHT22;45054;52.062;10.010;2023-05-16T02:22:44;10.30;99.90
59282;DHT22;45054;52.062;10.010;2023-05-16T02:25:10;10.30;99.90
59282;DHT22;45054;52.062;10.010;2023-05-16T02:27:35;10.30;99.90
59282;DHT22;45054;52.062;10.010;2023-05-16T02:30:01;10.30;99.90
59282;DHT22;45054;52.062;10.010;2023-05-16T02:32:27;10.30;99.90
59282;DHT22;45054;52.062;10.010;2023-05-16T02:34:53;10.40;99.90
59282;DHT22;45054;52.062;10.010;2023-05-16T02:37:19;10.40;99.90
59282;DHT22;45054;52.062;10.010;2023-05-16T02:39:45;10.40;99.90
59282;DHT22;45054;52.062;10.010;2023-05-16T02:42:11;10.40;99.90
59282;DHT22;45054;52.062;10.010;2023-05-16T02:44:36;10.40;99.90
59282;DHT22;45054;52.062;10.010;2023-05-16T02:47:03;10.30;99.90
59282;DHT22;45054;52.062;10.010;2023-05-16T02:49:29;10.30;99.90
59282;DHT22;45054;52.062;10.010;2023-05-16T02:51:56;10.30;99.90
59282;DHT22;45054;52.062;10.010;2023-05-16T02:54:21;10.40;99.90
59282;DHT22;45054;52.062;10.010;2023-05-16T02:56:47;10.30;99.90
59282;DHT22;45054;52.062;10.010;2023-05-16T02:59:12;10.30;99.90
59282;DHT22;45054;52.062;10.010;2023-05-16T03:01:38;10.30;99.90
59282;DHT22;45054;52.062;10.010;2023-05-16T03:04:03;10.30;99.90
59282;DHT22;45054;52.062;10.010;2023-05-16T03:06:28;10.30;99.90
59282;DHT22;45054;52.062;10.010;2023-05-16T03:08:55;10.30;99.90
59282;DHT22;45054;52.062;10.010;2023-05-16T03:11:21;10.30;99.90
59282;DHT22;45054;52.062;10.010;2023-05-16T03:13:46;10.30;99.90
59282;DHT22;45054;52.062;10.010;2023-05-16T03:16:12;10.30;99.90
59282;DHT22;45054;52.062;10.010;2023-05-16T03:18:37;10.40;99.90
59282;DHT22;45054;52.062;10.010;2023-05-16T03:21:03;10.40;99.90
59282;DHT22;45054;52.062;10.010;2023-05-16T03:23:28;10.30;99.90
59282;DHT22;45054;52.062;10.010;2023-05-16T03:25:55;10.40;99.90
59282;DHT22;45054;52.062;10.010;2023-05-16T03:28:21;10.30;99.90
59282;DHT22;45054;52.062;10.010;2023-05-16T03:30:46;10.20;99.90
59282;DHT22;45054;52.062;10.010;2023-05-16T03:33:12;10.20;99.90
59282;DHT22;45054;52.062;10.010;2023-05-16T03:35:37;10.20;99.90
59282;DHT22;45054;52.062;10.010;2023-05-16T03:38:03;10.20;99.90
59282;DHT22;45054;52.062;10.010;2023-05-16T03:40:28;10.30;99.90
59282;DHT22;45054;52.062;10.010;2023-05-16T03:42:55;10.30;99.90
59282;DHT22;45054;52.062;10.010;2023-05-16T03:45:21;10.20;99.90
59282;DHT22;45054;52.062;10.010;2023-05-16T03:47:47;10.20;99.90
59282;DHT22;45054;52.062;10.010;2023-05-16T03:50:12;10.10;99.90
59282;DHT22;45054;52.062;10.010;2023-05-16T03:52:38;10.10;99.90
59282;DHT22;45054;52.062;10.010;2023-05-16T03:55:03;10.10;99.90
59282;DHT22;45054;52.062;10.010;2023-05-16T03:57:29;10.10;99.90
59282;DHT22;45054;52.062;10.010;2023-05-16T03:59:56;10.20;99.90
59282;DHT22;45054;52.062;10.010;2023-05-16T04:02:22;10.20;99.90
59282;DHT22;45054;52.062;10.010;2023-05-16T04:04:47;10.20;99.90
59282;DHT22;45054;52.062;10.010;2023-05-16T04:07:13;10.20;99.90
59282;DHT22;45054;52.062;10.010;2023-05-16T04:09:38;10.20;99.90
59282;DHT22;45054;52.062;10.010;2023-05-16T04:12:04;10.20;99.90
59282;DHT22;45054;52.062;10.010;2023-05-16T04:14:29;10.10;99.90
59282;DHT22;45054;52.062;10.010;2023-05-16T04:16:56;10.20;99.90
59282;DHT22;45054;52.062;10.010;2023-05-16T04:19:22;10.10;99.90
59282;DHT22;45054;52.062;10.010;2023-05-16T04:21:47;10.10;99.90
59282;DHT22;45054;52.062;10.010;2023-05-16T04:24:13;10.00;99.90
59282;DHT22;45054;52.062;10.010;2023-05-16T04:26:38;10.00;99.90
59282;DHT22;45054;52.062;10.010;2023-05-16T04:29:03;10.00;99.90
59282;DHT22;45054;52.062;10.010;2023-05-16T04:31:29;10.00;99.90
59282;DHT22;45054;52.062;10.010;2023-05-16T04:33:56;10.00;99.90
59282;DHT22;45054;52.062;10.010;2023-05-16T04:36:21;10.00;99.90
59282;DHT22;45054;52.062;10.010;2023-05-16T04:38:47;10.00;99.90
59282;DHT22;45054;52.062;10.010;2023-05-16T04:41:12;10.00;99.90
59282;DHT22;45054;52.062;10.010;2023-05-16T04:43:38;10.00;99.90
59282;DHT22;45054;52.062;10.010;2023-05-16T04:46:03;9.90;99.90
59282;DHT22;45054;52.062;10.010;2023-05-16T04:48:29;9.90;99.90
59282;DHT22;45054;52.062;10.010;2023-05-16T04:50:55;9.90;99.90
59282;DHT22;45054;52.062;10.010;2023-05-16T04:53:21;9.90;99.90
59282;DHT22;45054;52.062;10.010;2023-05-16T04:55:46;9.90;99.90
59282;DHT22;45054;52.062;10.010;2023-05-16T04:58:12;9.90;99.90
59282;DHT22;45054;52.062;10.010;2023-05-16T05:00:37;10.00;99.90
59282;DHT22;45054;52.062;10.010;2023-05-16T05:03:03;10.00;99.90
59282;DHT22;45054;52.062;10.010;2023-05-16T05:05:28;10.00;99.90
59282;DHT22;45054;52.062;10.010;2023-05-16T05:07:56;10.00;99.90
59282;DHT22;45054;52.062;10.010;2023-05-16T05:10:22;10.10;99.90
59282;DHT22;45054;52.062;10.010;2023-05-16T05:12:47;10.20;99.90
59282;DHT22;45054;52.062;10.010;2023-05-16T05:15:13;10.20;99.90
59282;DHT22;45054;52.062;10.010;2023-05-16T05:17:38;10.20;99.90
59282;DHT22;45054;52.062;10.010;2023-05-16T05:20:04;10.10;99.90
59282;DHT22;45054;52.062;10.010;2023-05-16T05:22:30;10.10;99.90
59282;DHT22;45054;52.062;10.010;2023-05-16T05:24:56;10.10;99.90
59282;DHT22;45054;52.062;10.010;2023-05-16T05:27:22;10.00;99.90
59282;DHT22;45054;52.062;10.010;2023-05-16T05:29:47;10.00;99.90
59282;DHT22;45054;52.062;10.010;2023-05-16T05:32:13;10.00;99.90
59282;DHT22;45054;52.062;10.010;2023-05-16T05:34:38;9.90;99.90
59282;DHT22;45054;52.062;10.010;2023-05-16T05:37:04;9.90;99.90
59282;DHT22;45054;52.062;10.010;2023-05-16T05:39:29;9.90;99.90
59282;DHT22;45054;52.062;10.010;2023-05-16T05:41:56;9.90;99.90
59282;DHT22;45054;52.062;10.010;2023-05-16T05:44:21;9.90;99.90
59282;DHT22;45054;52.062;10.010;2023-05-16T05:46:47;9.90;99.90
59282;DHT22;45054;52.062;10.010;2023-05-16T05:49:12;9.90;99.90
59282;DHT22;45054;52.062;10.010;2023-05-16T05:51:38;9.90;99.90
59282;DHT22;45054;52.062;10.010;2023-05-16T05:54:03;9.90;99.90
59282;DHT22;45054;52.062;10.010;2023-05-16T05:56:29;9.80;99.90
59282;DHT22;45054;52.062;10.010;2023-05-16T05:58:55;9.90;99.90
59282;DHT22;45054;52.062;10.010;2023-05-16T06:01:21;9.90;99.90
59282;DHT22;45054;52.062;10.010;2023-05-16T06:03:46;10.00;99.90
59282;DHT22;45054;52.062;10.010;2023-05-16T06:06:12;9.90;99.90
59282;DHT22;45054;52.062;10.010;2023-05-16T06:08:37;9.90;99.90
59282;DHT22;45054;52.062;10.010;2023-05-16T06:11:03;9.80;99.90
59282;DHT22;45054;52.062;10.010;2023-05-16T06:13:29;9.70;99.90
59282;DHT22;45054;52.062;10.010;2023-05-16T06:15:56;9.70;99.90
59282;DHT22;45054;52.062;10.010;2023-05-16T06:18:21;9.70;99.90
59282;DHT22;45054;52.062;10.010;2023-05-16T06:20:46;9.70;99.90
59282;DHT22;45054;52.062;10.010;2023-05-16T06:23:12;9.60;99.90
59282;DHT22;45054;52.062;10.010;2023-05-16T06:25:37;9.60;99.90
59282;DHT22;45054;52.062;10.010;2023-05-16T06:28:03;9.60;99.90
59282;DHT22;45054;52.062;10.010;2023-05-16T06:30:28;9.50;99.90
59282;DHT22;45054;52.062;10.010;2023-05-16T06:32:55;9.60;99.90
59282;DHT22;45054;52.062;10.010;2023-05-16T06:35:21;9.70;99.90
59282;DHT22;45054;52.062;10.010;2023-05-16T06:37:47;9.70;99.90
59282;DHT22;45054;52.062;10.010;2023-05-16T06:40:12;9.60;99.90
59282;DHT22;45054;52.062;10.010;2023-05-16T06:42:38;9.70;99.90
59282;DHT22;45054;52.062;10.010;2023-05-16T06:45:04;9.60;99.90
59282;DHT22;45054;52.062;10.010;2023-05-16T06:47:29;9.60;99.90
59282;DHT22;45054;52.062;10.010;2023-05-16T06:49:56;9.60;99.90
59282;DHT22;45054;52.062;10.010;2023-05-16T06:52:21;9.70;99.90
59282;DHT22;45054;52.062;10.010;2023-05-16T06:54:47;9.70;99.90
59282;DHT22;45054;52.062;10.010;2023-05-16T06:57:12;9.80;99.90
59282;DHT22;45054;52.062;10.010;2023-05-16T06:59:38;9.90;99.90
59282;DHT22;45054;52.062;10.010;2023-05-16T07:02:03;9.90;99.90
59282;DHT22;45054;52.062;10.010;2023-05-16T07:04:29;10.00;99.90
59282;DHT22;45054;52.062;10.010;2023-05-16T07:06:56;10.10;99.90
59282;DHT22;45054;52.062;10.010;2023-05-16T07:09:21;10.00;99.90
59282;DHT22;45054;52.062;10.010;2023-05-16T07:11:47;10.00;99.90
59282;DHT22;45054;52.062;10.010;2023-05-16T07:14:12;10.00;99.90
59282;DHT22;45054;52.062;10.010;2023-05-16T07:16:38;10.10;99.90
59282;DHT22;45054;52.062;10.010;2023-05-16T07:19:03;10.20;99.90
59282;DHT22;45054;52.062;10.010;2023-05-16T07:21:28;10.30;99.90
59282;DHT22;45054;52.062;10.010;2023-05-16T07:23:55;10.30;99.90
59282;DHT22;45054;52.062;10.010;2023-05-16T07:26:21;10.30;99.90
59282;DHT22;45054;52.062;10.010;2023-05-16T07:28:46;10.20;99.90
59282;DHT22;45054;52.062;10.010;2023-05-16T07:31:12;10.30;99.90
59282;DHT22;45054;52.062;10.010;2023-05-16T07:33:37;10.30;99.90
59282;DHT22;45054;52.062;10.010;2023-05-16T07:36:03;10.20;99.90
59282;DHT22;45054;52.062;10.010;2023-05-16T07:38:28;10.30;99.90
59282;DHT22;45054;52.062;10.010;2023-05-16T07:40:55;10.30;99.90
59282;DHT22;45054;52.062;10.010;2023-05-16T07:43:21;10.40;99.90
59282;DHT22;45054;52.062;10.010;2023-05-16T07:45:46;10.60;99.90
59282;DHT22;45054;52.062;10.010;2023-05-16T07:48:11;10.80;99.90
59282;DHT22;45054;52.062;10.010;2023-05-16T07:50:37;10.90;99.90
59282;DHT22;45054;52.062;10.010;2023-05-16T07:53:02;10.90;99.90
59282;DHT22;45054;52.062;10.010;2023-05-16T07:55:28;11.00;99.90
59282;DHT22;45054;52.062;10.010;2023-05-16T07:57:55;10.70;99.90
59282;DHT22;45054;52.062;10.010;2023-05-16T08:00:20;10.50;99.90
59282;DHT22;45054;52.062;10.010;2023-05-16T08:02:45;10.50;99.90
59282;DHT22;45054;52.062;10.010;2023-05-16T08:05:11;10.50;99.90
59282;DHT22;45054;52.062;10.010;2023-05-16T08:07:36;10.60;99.90
59282;DHT22;45054;52.062;10.010;2023-05-16T08:10:02;10.70;99.90
59282;DHT22;45054;52.062;10.010;2023-05-16T08:12:28;10.90;99.90
59282;DHT22;45054;52.062;10.010;2023-05-16T08:14:54;10.90;99.90
59282;DHT22;45054;52.062;10.010;2023-05-16T08:17:20;11.10;99.90
59282;DHT22;45054;52.062;10.010;2023-05-16T08:19:45;11.20;99.90
59282;DHT22;45054;52.062;10.010;2023-05-16T08:22:11;11.40;99.90
59282;DHT22;45054;52.062;10.010;2023-05-16T08:24:36;11.50;99.90
59282;DHT22;45054;52.062;10.010;2023-05-16T08:27:02;11.60;99.90
59282;DHT22;45054;52.062;10.010;2023-05-16T08:29:27;11.60;99.90
59282;DHT22;45054;52.062;10.010;2023-05-16T08:31:54;11.50;99.90
59282;DHT22;45054;52.062;10.010;2023-05-16T08:34:19;11.50;99.90
59282;DHT22;45054;52.062;10.010;2023-05-16T08:36:45;11.60;99.90
59282;DHT22;45054;52.062;10.010;2023-05-16T08:39:10;11.60;99.90
59282;DHT22;45054;52.062;10.010;2023-05-16T08:41:36;11.60;99.90
59282;DHT22;45054;52.062;10.010;2023-05-16T08:44:01;11.40;99.90
59282;DHT22;45054;52.062;10.010;2023-05-16T08:46:27;11.40;99.90
59282;DHT22;45054;52.062;10.010;2023-05-16T08:48:56;11.40;99.90
59282;DHT22;45054;52.062;10.010;2023-05-16T08:51:22;11.40;99.90
59282;DHT22;45054;52.062;10.010;2023-05-16T08:53:49;11.40;99.90
59282;DHT22;45054;52.062;10.010;2023-05-16T08:56:16;11.50;99.90
59282;DHT22;45054;52.062;10.010;2023-05-16T08:58:42;11.60;99.90
59282;DHT22;45054;52.062;10.010;2023-05-16T09:01:08;11.80;99.90
59282;DHT22;45054;52.062;10.010;2023-05-16T09:03:34;11.90;99.90
59282;DHT22;45054;52.062;10.010;2023-05-16T09:06:01;11.90;99.90
59282;DHT22;45054;52.062;10.010;2023-05-16T09:08:26;11.90;99.90
59282;DHT22;45054;52.062;10.010;2023-05-16T09:10:52;11.90;99.90
59282;DHT22;45054;52.062;10.010;2023-05-16T09:13:17;11.90;99.90
59282;DHT22;45054;52.062;10.010;2023-05-16T09:15:43;11.90;99.90
59282;DHT22;45054;52.062;10.010;2023-05-16T09:18:10;12.00;99.90
59282;DHT22;45054;52.062;10.010;2023-05-16T09:20:36;11.80;99.90
59282;DHT22;45054;52.062;10.010;2023-05-16T09:23:08;11.70;99.90
59282;DHT22;45054;52.062;10.010;2023-05-16T09:25:34;11.80;99.90
59282;DHT22;45054;52.062;10.010;2023-05-16T09:28:00;12.00;99.90
59282;DHT22;45054;52.062;10.010;2023-05-16T09:30:27;12.20;99.90
59282;DHT22;45054;52.062;10.010;2023-05-16T09:32:53;12.30;99.90
59282;DHT22;45054;52.062;10.010;2023-05-16T09:35:18;12.20;99.90
59282;DHT22;45054;52.062;10.010;2023-05-16T09:37:44;12.30;99.90
59282;DHT22;45054;52.062;10.010;2023-05-16T09:40:11;12.30;99.90
59282;DHT22;45054;52.062;10.010;2023-05-16T09:42:37;12.20;99.90
59282;DHT22;45054;52.062;10.010;2023-05-16T09:45:03;12.20;99.90
59282;DHT22;45054;52.062;10.010;2023-05-16T09:47:28;12.40;99.90
59282;DHT22;45054;52.062;10.010;2023-05-16T09:49:54;12.70;99.90
59282;DHT22;45054;52.062;10.010;2023-05-16T09:52:20;12.80;99.90
59282;DHT22;45054;52.062;10.010;2023-05-16T09:54:46;12.70;99.90
59282;DHT22;45054;52.062;10.010;2023-05-16T09:57:13;12.40;99.90
59282;DHT22;45054;52.062;10.010;2023-05-16T09:59:41;12.50;99.90
59282;DHT22;45054;52.062;10.010;2023-05-16T10:02:07;12.30;99.90
59282;DHT22;45054;52.062;10.010;2023-05-16T10:04:32;12.20;99.90
59282;DHT22;45054;52.062;10.010;2023-05-16T10:06:58;12.10;99.90
59282;DHT22;45054;52.062;10.010;2023-05-16T10:09:25;12.20;99.90
59282;DHT22;45054;52.062;10.010;2023-05-16T10:11:51;12.40;99.90
59282;DHT22;45054;52.062;10.010;2023-05-16T10:14:18;12.60;99.90
59282;DHT22;45054;52.062;10.010;2023-05-16T10:16:45;13.00;99.90
59282;DHT22;45054;52.062;10.010;2023-05-16T10:19:11;13.20;99.90
59282;DHT22;45054;52.062;10.010;2023-05-16T10:21:37;13.30;99.90
59282;DHT22;45054;52.062;10.010;2023-05-16T10:24:05;13.50;99.90
59282;DHT22;45054;52.062;10.010;2023-05-16T10:26:31;13.40;99.90
59282;DHT22;45054;52.062;10.010;2023-05-16T10:28:56;13.30;99.90
59282;DHT22;45054;52.062;10.010;2023-05-16T10:31:23;13.30;99.90
59282;DHT22;45054;52.062;10.010;2023-05-16T10:33:49;13.30;99.90
59282;DHT22;45054;52.062;10.010;2023-05-16T10:36:14;13.10;99.90
59282;DHT22;45054;52.062;10.010;2023-05-16T10:38:40;13.00;99.90
59282;DHT22;45054;52.062;10.010;2023-05-16T10:41:07;13.00;99.90
59282;DHT22;45054;52.062;10.010;2023-05-16T10:43:32;13.00;99.90
59282;DHT22;45054;52.062;10.010;2023-05-16T10:45:58;13.10;99.90
59282;DHT22;45054;52.062;10.010;2023-05-16T10:48:31;13.30;99.90
59282;DHT22;45054;52.062;10.010;2023-05-16T10:50:57;13.10;99.90
59282;DHT22;45054;52.062;10.010;2023-05-16T10:53:28;13.20;99.90
59282;DHT22;45054;52.062;10.010;2023-05-16T10:56:07;13.40;99.90
59282;DHT22;45054;52.062;10.010;2023-05-16T10:58:42;13.60;99.90
59282;DHT22;45054;52.062;10.010;2023-05-16T11:01:18;13.70;99.90
59282;DHT22;45054;52.062;10.010;2023-05-16T11:04:05;13.60;99.90
59282;DHT22;45054;52.062;10.010;2023-05-16T11:06:31;13.60;99.90
59282;DHT22;45054;52.062;10.010;2023-05-16T11:09:03;13.80;99.90
59282;DHT22;45054;52.062;10.010;2023-05-16T11:11:38;14.00;99.90
59282;DHT22;45054;52.062;10.010;2023-05-16T11:14:03;14.00;99.90
59282;DHT22;45054;52.062;10.010;2023-05-16T11:16:29;13.80;99.90
59282;DHT22;45054;52.062;10.010;2023-05-16T11:18:54;13.60;99.90
59282;DHT22;45054;52.062;10.010;2023-05-16T11:24:28;13.20;99.90
59282;DHT22;45054;52.062;10.010;2023-05-16T11:26:54;13.10;99.90
59282;DHT22;45054;52.062;10.010;2023-05-16T11:29:20;13.40;99.90
59282;DHT22;45054;52.062;10.010;2023-05-16T11:31:45;13.70;99.90
59282;DHT22;45054;52.062;10.010;2023-05-16T11:34:11;13.90;99.90
59282;DHT22;45054;52.062;10.010;2023-05-16T11:36:37;13.90;99.90
59282;DHT22;45054;52.062;10.010;2023-05-16T11:39:04;14.20;99.90
59282;DHT22;45054;52.062;10.010;2023-05-16T11:41:31;14.50;99.90
59282;DHT22;45054;52.062;10.010;2023-05-16T11:43:57;14.60;99.90
59282;DHT22;45054;52.062;10.010;2023-05-16T11:46:22;14.50;99.90
59282;DHT22;45054;52.062;10.010;2023-05-16T11:48:48;14.30;99.90
59282;DHT22;45054;52.062;10.010;2023-05-16T11:51:13;14.10;99.90
59282;DHT22;45054;52.062;10.010;2023-05-16T11:53:41;14.10;99.90
59282;DHT22;45054;52.062;10.010;2023-05-16T11:56:07;14.10;99.90
59282;DHT22;45054;52.062;10.010;2023-05-16T11:58:34;13.80;99.90
59282;DHT22;45054;52.062;10.010;2023-05-16T12:01:00;13.80;99.90
59282;DHT22;45054;52.062;10.010;2023-05-16T12:03:28;13.60;99.90
59282;DHT22;45054;52.062;10.010;2023-05-16T12:05:53;13.70;99.90
59282;DHT22;45054;52.062;10.010;2023-05-16T12:08:19;13.80;99.90
59282;DHT22;45054;52.062;10.010;2023-05-16T12:10:44;14.10;99.90
59282;DHT22;45054;52.062;10.010;2023-05-16T12:13:10;14.20;99.90
59282;DHT22;45054;52.062;10.010;2023-05-16T12:15:37;14.20;99.90
59282;DHT22;45054;52.062;10.010;2023-05-16T12:18:02;14.40;99.90
59282;DHT22;45054;52.062;10.010;2023-05-16T12:20:28;14.30;99.90
59282;DHT22;45054;52.062;10.010;2023-05-16T12:22:56;14.50;99.90
59282;DHT22;45054;52.062;10.010;2023-05-16T12:25:23;14.80;99.90
59282;DHT22;45054;52.062;10.010;2023-05-16T12:27:49;15.10;99.90
59282;DHT22;45054;52.062;10.010;2023-05-16T12:30:15;15.10;99.90
59282;DHT22;45054;52.062;10.010;2023-05-16T12:32:42;15.10;99.90
59282;DHT22;45054;52.062;10.010;2023-05-16T12:35:09;15.00;99.90
59282;DHT22;45054;52.062;10.010;2023-05-16T12:37:34;14.90;99.90
59282;DHT22;45054;52.062;10.010;2023-05-16T12:40:00;15.10;99.90
59282;DHT22;45054;52.062;10.010;2023-05-16T12:42:25;15.00;99.90
59282;DHT22;45054;52.062;10.010;2023-05-16T12:44:54;14.90;99.90
59282;DHT22;45054;52.062;10.010;2023-05-16T12:47:19;15.00;99.90
59282;DHT22;45054;52.062;10.010;2023-05-16T12:49:46;15.10;99.90
59282;DHT22;45054;52.062;10.010;2023-05-16T12:52:16;15.20;99.90
59282;DHT22;45054;52.062;10.010;2023-05-16T12:54:42;15.10;99.90
59282;DHT22;45054;52.062;10.010;2023-05-16T12:57:07;14.90;99.90
59282;DHT22;45054;52.062;10.010;2023-05-16T12:59:32;14.70;99.90
59282;DHT22;45054;52.062;10.010;2023-05-16T13:01:58;14.40;99.90
59282;DHT22;45054;52.062;10.010;2023-05-16T13:04:23;14.10;99.90
59282;DHT22;45054;52.062;10.010;2023-05-16T13:06:50;13.90;99.90
59282;DHT22;45054;52.062;10.010;2023-05-16T13:09:16;13.60;99.90
59282;DHT22;45054;52.062;10.010;2023-05-16T13:11:41;13.90;99.90
59282;DHT22;45054;52.062;10.010;2023-05-16T13:14:06;14.10;99.90
59282;DHT22;45054;52.062;10.010;2023-05-16T13:16:32;14.30;99.90
59282;DHT22;45054;52.062;10.010;2023-05-16T13:18:57;14.20;99.90
59282;DHT22;45054;52.062;10.010;2023-05-16T13:21:23;14.30;99.90
59282;DHT22;45054;52.062;10.010;2023-05-16T13:23:49;14.50;99.90
59282;DHT22;45054;52.062;10.010;2023-05-16T13:26:15;14.70;99.90
59282;DHT22;45054;52.062;10.010;2023-05-16T13:28:40;14.80;99.90
59282;DHT22;45054;52.062;10.010;2023-05-16T13:31:06;14.60;99.90
59282;DHT22;45054;52.062;10.010;2023-05-16T13:33:31;14.30;99.90
59282;DHT22;45054;52.062;10.010;2023-05-16T13:35:57;14.10;99.90
59282;DHT22;45054;52.062;10.010;2023-05-16T13:38:22;14.10;99.90
59282;DHT22;45054;52.062;10.010;2023-05-16T13:40:49;14.00;99.90
59282;DHT22;45054;52.062;10.010;2023-05-16T13:43:15;13.90;99.90
59282;DHT22;45054;52.062;10.010;2023-05-16T13:45:40;13.80;99.90
59282;DHT22;45054;52.062;10.010;2023-05-16T13:48:05;13.70;99.90
59282;DHT22;45054;52.062;10.010;2023-05-16T13:50:31;13.90;99.90
59282;DHT22;45054;52.062;10.010;2023-05-16T13:52:56;14.00;99.90
59282;DHT22;45054;52.062;10.010;2023-05-16T13:55:22;14.20;99.90
59282;DHT22;45054;52.062;10.010;2023-05-16T13:57:48;14.40;99.90
59282;DHT22;45054;52.062;10.010;2023-05-16T14:00:14;14.70;99.90
59282;DHT22;45054;52.062;10.010;2023-05-16T14:02:40;15.30;99.90
59282;DHT22;45054;52.062;10.010;2023-05-16T14:05:06;15.90;99.90
59282;DHT22;45054;52.062;10.010;2023-05-16T14:07:31;16.10;99.90
59282;DHT22;45054;52.062;10.010;2023-05-16T14:09:56;16.30;99.90
59282;DHT22;45054;52.062;10.010;2023-05-16T14:12:22;16.10;99.90
59282;DHT22;45054;52.062;10.010;2023-05-16T14:14:49;15.70;99.90
59282;DHT22;45054;52.062;10.010;2023-05-16T14:17:14;15.30;99.90
59282;DHT22;45054;52.062;10.010;2023-05-16T14:19:40;15.00;99.90
59282;DHT22;45054;52.062;10.010;2023-05-16T14:22:05;14.80;99.90
59282;DHT22;45054;52.062;10.010;2023-05-16T14:24:30;14.50;99.90
59282;DHT22;45054;52.062;10.010;2023-05-16T14:26:56;14.30;99.90
59282;DHT22;45054;52.062;10.010;2023-05-16T14:29:21;14.10;99.90
59282;DHT22;45054;52.062;10.010;2023-05-16T14:31:48;13.90;99.90
59282;DHT22;45054;52.062;10.010;2023-05-16T14:34:14;13.70;99.90
59282;DHT22;45054;52.062;10.010;2023-05-16T14:36:39;13.50;99.90
59282;DHT22;45054;52.062;10.010;2023-05-16T14:39:04;13.40;99.90
59282;DHT22;45054;52.062;10.010;2023-05-16T14:41:30;13.30;99.90
59282;DHT22;45054;52.062;10.010;2023-05-16T14:43:55;13.40;99.90
59282;DHT22;45054;52.062;10.010;2023-05-16T14:46:21;13.50;99.90
59282;DHT22;45054;52.062;10.010;2023-05-16T14:48:47;14.00;99.90
59282;DHT22;45054;52.062;10.010;2023-05-16T14:51:13;14.60;99.90
59282;DHT22;45054;52.062;10.010;2023-05-16T14:53:38;14.90;99.90
59282;DHT22;45054;52.062;10.010;2023-05-16T14:56:04;15.10;99.90
59282;DHT22;45054;52.062;10.010;2023-05-16T14:58:29;15.10;99.90
59282;DHT22;45054;52.062;10.010;2023-05-16T15:00:55;15.00;99.90
59282;DHT22;45054;52.062;10.010;2023-05-16T15:03:20;15.00;99.90
59282;DHT22;45054;52.062;10.010;2023-05-16T15:05:47;15.00;99.90
59282;DHT22;45054;52.062;10.010;2023-05-16T15:08:12;15.00;99.90
59282;DHT22;45054;52.062;10.010;2023-05-16T15:10:38;15.20;99.90
59282;DHT22;45054;52.062;10.010;2023-05-16T15:13:04;15.10;99.90